createdAt,value
2022-12-15T00:00:13.326Z,11.10
2022-12-15T00:02:59.314Z,9.50
2022-12-15T00:05:49.898Z,8.38
2022-12-15T00:08:36.571Z,9.23
2022-12-15T00:11:23.405Z,8.93
2022-12-15T00:14:09.807Z,7.57
2022-12-15T00:16:56.018Z,8.50
2022-12-15T00:19:42.574Z,7.70
2022-12-15T00:22:28.797Z,7.43
2022-12-15T00:25:15.381Z,7.20
2022-12-15T00:28:01.623Z,7.70
2022-12-15T00:30:50.075Z,6.93
2022-12-15T00:33:36.770Z,7.43
2022-12-15T00:36:23.352Z,6.50
2022-12-15T00:38:51.130Z,5.97
2022-12-15T00:41:19.894Z,6.68
2022-12-15T00:43:48.034Z,6.53
2022-12-15T00:46:34.348Z,7.18
2022-12-15T00:49:02.280Z,7.43
2022-12-15T00:51:48.503Z,5.75
2022-12-15T00:54:35.009Z,7.43
2022-12-15T00:57:21.121Z,7.03
2022-12-15T01:00:07.671Z,7.22
2022-12-15T01:02:54.183Z,7.50
2022-12-15T01:05:40.474Z,7.85
2022-12-15T01:08:26.815Z,6.53
2022-12-15T01:11:13.316Z,6.65
2022-12-15T01:13:59.674Z,6.50
2022-12-15T01:16:46.154Z,5.87
2022-12-15T01:19:32.385Z,6.10
2022-12-15T01:22:00.090Z,6.25
2022-12-15T01:24:27.748Z,7.32
2022-12-15T01:26:55.456Z,6.07
2022-12-15T01:29:23.283Z,6.35
2022-12-15T01:31:50.930Z,6.32
2022-12-15T01:34:21.113Z,5.80
2022-12-15T01:36:48.764Z,5.55
2022-12-15T01:39:17.154Z,5.68
2022-12-15T01:41:44.811Z,6.35
2022-12-15T01:44:25.318Z,5.75
2022-12-15T01:46:57.059Z,5.62
2022-12-15T01:49:29.830Z,5.18
2022-12-15T01:52:01.529Z,5.28
2022-12-15T01:54:44.378Z,5.50
2022-12-15T01:57:22.608Z,4.85
2022-12-15T01:59:57.002Z,5.28
2022-12-15T02:02:27.851Z,6.05
2022-12-15T02:04:58.971Z,4.68
2022-12-15T02:07:27.396Z,5.35
2022-12-15T02:09:59.476Z,5.25
2022-12-15T02:12:42.579Z,5.43
2022-12-15T02:15:48.569Z,6.18
2022-12-15T02:18:34.901Z,5.15
2022-12-15T02:21:08.167Z,5.90
2022-12-15T02:23:57.535Z,5.93
2022-12-15T02:27:02.980Z,6.95
2022-12-15T02:29:42.951Z,5.10
2022-12-15T02:32:15.548Z,5.20
2022-12-15T02:34:46.721Z,5.65
2022-12-15T02:37:26.059Z,5.70
2022-12-15T02:39:53.826Z,6.05
2022-12-15T02:42:22.670Z,6.40
2022-12-15T02:44:55.337Z,5.65
2022-12-15T02:47:52.443Z,6.12
2022-12-15T02:50:35.545Z,6.07
2022-12-15T02:53:05.998Z,6.37
2022-12-15T02:55:50.378Z,6.25
2022-12-15T02:58:32.666Z,5.47
2022-12-15T03:01:29.112Z,8.60
2022-12-15T03:03:58.553Z,6.37
2022-12-15T03:06:28.018Z,5.95
2022-12-15T03:08:55.717Z,5.72
2022-12-15T03:11:23.856Z,6.37
2022-12-15T03:13:52.027Z,5.32
2022-12-15T03:16:19.702Z,5.70
2022-12-15T03:18:48.162Z,5.37
2022-12-15T03:21:16.036Z,6.32
2022-12-15T03:23:43.757Z,5.87
2022-12-15T03:26:11.460Z,6.93
2022-12-15T03:28:39.137Z,7.37
2022-12-15T03:31:07.038Z,6.50
2022-12-15T03:33:35.580Z,5.55
2022-12-15T03:36:03.462Z,4.75
2022-12-15T03:38:31.163Z,4.68
2022-12-15T03:40:58.836Z,5.00
2022-12-15T03:43:26.677Z,4.65
2022-12-15T03:45:54.388Z,5.25
2022-12-15T03:48:22.927Z,4.18
2022-12-15T03:50:51.299Z,4.30
2022-12-15T03:53:19.028Z,3.70
2022-12-15T03:55:46.698Z,4.07
2022-12-15T03:58:14.341Z,4.00
2022-12-15T04:00:42.064Z,4.00
2022-12-15T04:03:12.493Z,3.00
2022-12-15T04:05:40.418Z,3.58
2022-12-15T04:08:08.232Z,3.37
2022-12-15T04:10:36.690Z,2.97
2022-12-15T04:13:07.937Z,3.62
2022-12-15T04:15:37.480Z,3.37
2022-12-15T04:18:11.762Z,3.72
2022-12-15T04:20:40.189Z,3.55
2022-12-15T04:23:11.606Z,3.20
2022-12-15T04:25:58.181Z,3.40
2022-12-15T04:28:44.300Z,3.33
2022-12-15T04:31:36.305Z,4.00
2022-12-15T04:34:27.642Z,3.67
2022-12-15T04:37:14.210Z,3.05
2022-12-15T04:40:05.373Z,3.08
2022-12-15T04:42:53.321Z,2.65
2022-12-15T04:45:42.726Z,3.10
2022-12-15T04:48:29.895Z,3.17
2022-12-15T04:51:16.072Z,3.10
2022-12-15T04:54:04.286Z,3.05
2022-12-15T04:56:51.895Z,3.17
2022-12-15T04:59:38.202Z,3.70
2022-12-15T05:02:24.482Z,2.80
2022-12-15T05:05:10.866Z,3.20
2022-12-15T05:07:57.170Z,3.40
2022-12-15T05:10:43.411Z,2.95
2022-12-15T05:13:29.865Z,3.42
2022-12-15T05:16:16.767Z,3.47
2022-12-15T05:19:02.919Z,2.92
2022-12-15T05:21:49.022Z,2.65
2022-12-15T05:24:35.151Z,2.70
2022-12-15T05:27:21.716Z,2.85
2022-12-15T05:30:07.544Z,3.30
2022-12-15T05:32:35.299Z,3.33
2022-12-15T05:35:03.042Z,2.87
2022-12-15T05:37:30.756Z,2.50
2022-12-15T05:39:58.437Z,2.42
2022-12-15T05:42:26.226Z,2.20
2022-12-15T05:44:54.018Z,1.90
2022-12-15T05:47:21.680Z,2.10
2022-12-15T05:49:50.407Z,1.98
2022-12-15T05:52:18.477Z,1.80
2022-12-15T05:54:46.115Z,2.10
2022-12-15T05:57:13.690Z,2.10
2022-12-15T05:59:41.285Z,1.83
2022-12-15T06:02:08.969Z,2.42
2022-12-15T06:04:36.711Z,2.00
2022-12-15T06:07:04.488Z,1.90
2022-12-15T06:09:32.257Z,2.30
2022-12-15T06:11:59.903Z,2.17
2022-12-15T06:14:27.596Z,1.87
2022-12-15T06:16:55.325Z,2.50
2022-12-15T06:19:23.220Z,2.33
2022-12-15T06:21:50.966Z,2.50
2022-12-15T06:24:18.634Z,2.40
2022-12-15T06:26:46.554Z,2.65
2022-12-15T06:29:17.571Z,2.70
2022-12-15T06:31:45.631Z,2.70
2022-12-15T06:34:16.034Z,2.78
2022-12-15T06:36:44.041Z,2.55
2022-12-15T06:39:14.754Z,2.47
2022-12-15T06:41:43.520Z,3.05
2022-12-15T06:44:15.431Z,2.50
2022-12-15T06:46:43.962Z,2.72
2022-12-15T06:49:11.745Z,3.67
2022-12-15T06:51:39.854Z,2.58
2022-12-15T06:54:07.585Z,2.83
2022-12-15T06:56:40.020Z,3.55
2022-12-15T06:59:08.738Z,3.55
2022-12-15T07:01:37.025Z,3.45
2022-12-15T07:04:06.620Z,3.35
2022-12-15T07:06:38.452Z,2.95
2022-12-15T07:09:12.903Z,3.70
2022-12-15T07:11:41.614Z,2.55
2022-12-15T07:14:11.056Z,2.50
2022-12-15T07:16:38.791Z,3.05
2022-12-15T07:19:06.973Z,2.85
2022-12-15T07:21:34.683Z,2.80
2022-12-15T07:24:02.849Z,3.10
2022-12-15T07:26:31.571Z,2.33
2022-12-15T07:28:59.293Z,3.10
2022-12-15T07:31:26.962Z,3.45
2022-12-15T07:33:55.581Z,4.00
2022-12-15T07:36:23.279Z,3.90
2022-12-15T07:38:51.741Z,4.00
2022-12-15T07:41:20.974Z,3.55
2022-12-15T07:43:49.364Z,3.65
2022-12-15T07:46:18.823Z,4.18
2022-12-15T07:48:50.110Z,3.45
2022-12-15T07:51:19.961Z,4.18
2022-12-15T07:53:49.100Z,4.20
2022-12-15T07:56:16.955Z,3.92
2022-12-15T07:58:45.350Z,3.85
2022-12-15T08:01:14.862Z,4.18
2022-12-15T08:03:43.004Z,3.70
2022-12-15T08:06:13.351Z,3.97
2022-12-15T08:08:42.138Z,3.90
2022-12-15T08:11:12.136Z,5.65
2022-12-15T08:16:30.303Z,4.37
2022-12-15T08:19:00.808Z,4.28
2022-12-15T08:21:28.548Z,4.70
2022-12-15T08:23:56.277Z,3.95
2022-12-15T08:26:30.095Z,4.32
2022-12-15T08:29:17.266Z,4.10
2022-12-15T08:31:46.270Z,4.15
2022-12-15T08:34:13.982Z,4.10
2022-12-15T08:36:41.821Z,4.22
2022-12-15T08:39:09.558Z,4.65
2022-12-15T08:41:37.264Z,4.43
2022-12-15T08:44:05.172Z,4.07
2022-12-15T08:46:37.317Z,4.80
2022-12-15T08:49:05.612Z,4.35
2022-12-15T08:51:34.714Z,4.55
2022-12-15T08:54:03.369Z,4.45
2022-12-15T08:56:31.449Z,4.18
2022-12-15T08:59:02.200Z,4.90
2022-12-15T09:01:33.429Z,4.85
2022-12-15T09:04:02.309Z,4.80
2022-12-15T09:06:33.002Z,4.43
2022-12-15T09:09:03.701Z,4.43
2022-12-15T09:11:32.125Z,5.22
2022-12-15T09:13:59.925Z,4.57
2022-12-15T09:16:28.897Z,5.20
2022-12-15T09:18:59.559Z,4.65
2022-12-15T09:21:29.806Z,4.78
2022-12-15T09:24:01.555Z,5.62
2022-12-15T09:26:31.998Z,5.03
2022-12-15T09:29:00.003Z,5.37
2022-12-15T09:31:30.224Z,5.45
2022-12-15T09:34:01.511Z,5.05
2022-12-15T09:36:31.080Z,5.43
2022-12-15T09:38:59.684Z,5.28
2022-12-15T09:41:30.432Z,4.90
2022-12-15T09:44:08.289Z,4.75
2022-12-15T09:46:51.133Z,4.78
2022-12-15T09:49:31.046Z,4.60
2022-12-15T09:52:15.408Z,4.95
2022-12-15T09:54:44.848Z,5.57
2022-12-15T09:57:31.138Z,4.82
2022-12-15T10:00:12.608Z,5.05
2022-12-15T10:03:02.182Z,4.93
2022-12-15T10:06:25.951Z,5.47
2022-12-15T10:09:03.976Z,5.50
2022-12-15T10:12:14.483Z,5.53
2022-12-15T10:15:08.309Z,4.90
2022-12-15T10:17:57.780Z,5.50
2022-12-15T10:20:28.781Z,6.72
2022-12-15T10:23:01.178Z,6.47
2022-12-15T10:25:31.379Z,6.10
2022-12-15T10:28:23.163Z,6.05
2022-12-15T10:31:01.308Z,6.22
2022-12-15T10:36:17.242Z,7.97
2022-12-15T10:38:50.478Z,6.87
2022-12-15T10:41:27.512Z,6.43
2022-12-15T10:43:55.936Z,7.00
2022-12-15T10:46:26.094Z,6.78
2022-12-15T10:49:22.399Z,7.78
2022-12-15T10:51:57.220Z,7.00
2022-12-15T10:54:27.854Z,6.05
2022-12-15T10:56:57.725Z,6.32
2022-12-15T10:59:37.020Z,7.97
2022-12-15T11:02:25.669Z,7.05
2022-12-15T11:04:59.572Z,7.35
2022-12-15T11:07:36.404Z,6.70
2022-12-15T11:10:28.105Z,7.47
2022-12-15T11:13:22.574Z,7.15
2022-12-15T11:15:55.253Z,6.65
2022-12-15T11:18:41.546Z,8.32
2022-12-15T11:21:36.133Z,7.53
2022-12-15T11:24:30.599Z,7.75
2022-12-15T11:27:33.221Z,8.43
2022-12-15T11:30:17.996Z,7.93
2022-12-15T11:32:50.172Z,8.57
2022-12-15T11:35:26.459Z,8.75
2022-12-15T11:38:05.538Z,10.02
2022-12-15T11:40:40.904Z,8.43
2022-12-15T11:43:18.108Z,7.95
2022-12-15T11:46:21.647Z,8.35
2022-12-15T11:49:11.342Z,9.15
2022-12-15T11:51:47.781Z,8.93
2022-12-15T11:54:43.062Z,7.43
2022-12-15T11:57:44.375Z,9.23
2022-12-15T12:00:21.735Z,7.18
2022-12-15T12:02:58.141Z,7.72
2022-12-15T12:05:39.435Z,8.43
2022-12-15T12:08:29.207Z,8.50
2022-12-15T12:11:22.812Z,8.30
2022-12-15T12:14:12.162Z,9.05
2022-12-15T12:17:10.549Z,8.18
2022-12-15T12:19:53.337Z,8.90
2022-12-15T12:22:39.531Z,9.88
2022-12-15T12:25:27.034Z,8.75
2022-12-15T12:28:01.316Z,9.38
2022-12-15T12:30:39.878Z,9.57
2022-12-15T12:33:26.386Z,10.32
2022-12-15T12:36:05.179Z,9.25
2022-12-15T12:38:40.732Z,9.00
2022-12-15T12:41:25.262Z,9.68
2022-12-15T12:43:56.811Z,10.43
2022-12-15T12:46:50.808Z,10.48
2022-12-15T12:49:54.605Z,10.40
2022-12-15T12:52:38.189Z,10.27
2022-12-15T12:55:39.782Z,12.25
2022-12-15T12:58:34.417Z,11.35
2022-12-15T13:01:28.939Z,11.10
2022-12-15T13:04:13.034Z,11.27
2022-12-15T13:06:40.661Z,10.43
2022-12-15T13:09:20.433Z,11.88
2022-12-15T13:11:52.258Z,11.70
2022-12-15T13:14:26.425Z,11.70
2022-12-15T13:17:28.412Z,11.88
2022-12-15T13:20:02.386Z,12.88
2022-12-15T13:22:36.815Z,11.98
2022-12-15T13:25:29.190Z,12.40
2022-12-15T13:28:01.729Z,12.15
2022-12-15T13:30:29.462Z,12.85
2022-12-15T13:33:17.673Z,12.63
2022-12-15T13:35:45.873Z,13.43
2022-12-15T13:38:19.350Z,14.25
2022-12-15T13:40:57.872Z,14.32
2022-12-15T13:43:30.441Z,14.77
2022-12-15T13:46:10.640Z,19.52
2022-12-15T13:48:44.499Z,16.87
2022-12-15T13:51:34.725Z,15.80
2022-12-15T13:54:18.572Z,15.63
2022-12-15T13:57:02.565Z,16.48
2022-12-15T13:59:46.410Z,14.90
2022-12-15T14:02:37.894Z,14.52
2022-12-15T14:05:23.230Z,14.75
2022-12-15T14:07:58.640Z,17.55
2022-12-15T14:10:31.308Z,16.25
2022-12-15T14:13:02.098Z,15.02
2022-12-15T14:15:34.024Z,14.98
2022-12-15T14:18:03.211Z,15.48
2022-12-15T14:20:39.702Z,19.80
2022-12-15T14:23:25.039Z,17.00
2022-12-15T14:25:58.803Z,15.50
2022-12-15T14:28:48.172Z,15.35
2022-12-15T14:31:23.932Z,21.70
2022-12-15T14:34:04.322Z,16.77
2022-12-15T14:36:33.822Z,16.20
2022-12-15T14:39:05.720Z,15.00
2022-12-15T14:41:38.478Z,15.50
2022-12-15T14:44:36.823Z,15.32
2022-12-15T14:46:58.077Z,17.80
2022-12-15T14:49:32.803Z,15.50
2022-12-15T14:52:06.411Z,15.75
2022-12-15T14:54:50.459Z,15.23
2022-12-15T14:57:24.190Z,14.85
2022-12-15T14:59:54.149Z,14.60
2022-12-15T15:02:29.460Z,16.37
2022-12-15T15:05:04.913Z,14.82
2022-12-15T15:07:34.184Z,15.48
2022-12-15T15:10:21.541Z,14.95
2022-12-15T15:12:50.559Z,14.27
2022-12-15T15:15:21.854Z,15.35
2022-12-15T15:17:56.065Z,14.45
2022-12-15T15:20:33.185Z,16.73
2022-12-15T15:23:11.811Z,16.73
2022-12-15T15:25:41.324Z,15.10
2022-12-15T15:28:21.469Z,15.18
2022-12-15T15:30:51.946Z,16.35
2022-12-15T15:33:25.551Z,15.85
2022-12-15T15:36:04.101Z,16.45
2022-12-15T15:38:39.632Z,14.98
2022-12-15T15:41:17.311Z,15.65
2022-12-15T15:43:45.160Z,14.25
2022-12-15T15:46:15.735Z,16.90
2022-12-15T15:48:47.838Z,14.60
2022-12-15T15:51:15.696Z,16.15
2022-12-15T15:53:43.594Z,16.75
2022-12-15T15:56:13.423Z,16.00
2022-12-15T15:58:41.772Z,15.30
2022-12-15T16:01:13.116Z,16.80
2022-12-15T16:03:42.013Z,18.67
2022-12-15T16:06:21.772Z,17.52
2022-12-15T16:08:54.821Z,16.77
2022-12-15T16:11:27.761Z,17.50
2022-12-15T16:13:55.517Z,16.27
2022-12-15T16:16:25.311Z,18.23
2022-12-15T16:18:53.086Z,19.00
2022-12-15T16:21:23.193Z,18.37
2022-12-15T16:23:50.960Z,19.08
2022-12-15T16:26:30.513Z,19.52
2022-12-15T16:28:58.686Z,19.05
2022-12-15T16:31:37.339Z,18.12
2022-12-15T16:34:08.579Z,17.98
2022-12-15T16:36:36.368Z,16.52
2022-12-15T16:39:05.087Z,19.00
2022-12-15T16:41:32.874Z,16.17
2022-12-15T16:44:00.644Z,17.60
2022-12-15T16:46:28.418Z,18.02
2022-12-15T16:48:56.100Z,16.08
2022-12-15T16:51:35.316Z,18.23
2022-12-15T16:54:03.216Z,16.27
2022-12-15T16:56:30.868Z,17.02
2022-12-15T16:59:30.931Z,17.62
2022-12-15T17:01:46.468Z,19.20
2022-12-15T17:04:14.301Z,18.35
2022-12-15T17:06:42.068Z,16.90
2022-12-15T17:09:16.178Z,17.10
2022-12-15T17:11:43.904Z,23.77
2022-12-15T17:14:11.681Z,19.92
2022-12-15T17:16:39.471Z,18.37
2022-12-15T17:19:07.283Z,17.00
2022-12-15T17:21:38.212Z,17.87
2022-12-15T17:24:09.917Z,18.40
2022-12-15T17:26:38.600Z,18.05
2022-12-15T17:29:15.806Z,22.75
2022-12-15T17:31:43.550Z,19.42
2022-12-15T17:34:31.875Z,19.10
2022-12-15T17:37:01.834Z,18.55
2022-12-15T17:39:30.604Z,20.73
2022-12-15T17:42:00.641Z,19.27
2022-12-15T17:44:34.291Z,17.05
2022-12-15T17:47:03.098Z,20.23
2022-12-15T17:49:35.613Z,19.02
2022-12-15T17:52:08.989Z,18.12
2022-12-15T17:54:36.913Z,16.83
2022-12-15T17:57:04.920Z,16.95
2022-12-15T17:59:33.378Z,17.00
2022-12-15T18:02:01.318Z,17.35
2022-12-15T18:04:29.248Z,17.37
2022-12-15T18:07:01.684Z,16.40
2022-12-15T18:09:30.778Z,16.02
2022-12-15T18:11:58.805Z,16.48
2022-12-15T18:14:28.636Z,16.05
2022-12-15T18:16:56.567Z,19.62
2022-12-15T18:19:24.588Z,17.83
2022-12-15T18:21:52.323Z,17.40
2022-12-15T18:24:22.652Z,18.35
2022-12-15T18:26:50.595Z,17.00
2022-12-15T18:29:21.372Z,17.05
2022-12-15T18:31:50.462Z,16.42
2022-12-15T18:34:22.128Z,16.77
2022-12-15T18:36:51.442Z,14.55
2022-12-15T18:39:21.587Z,17.20
2022-12-15T18:41:49.814Z,16.40
2022-12-15T18:44:27.017Z,18.10
2022-12-15T18:46:55.624Z,17.17
2022-12-15T18:49:24.465Z,20.65
2022-12-15T18:51:52.612Z,17.95
2022-12-15T18:54:25.383Z,19.10
2022-12-15T18:56:53.168Z,17.92
2022-12-15T18:59:22.630Z,17.60
2022-12-15T19:01:50.517Z,18.95
2022-12-15T19:04:18.209Z,17.00
2022-12-15T19:06:46.220Z,17.35
2022-12-15T19:09:22.832Z,19.77
2022-12-15T19:12:20.872Z,17.05
2022-12-15T19:14:51.087Z,16.00
2022-12-15T19:17:40.524Z,17.80
2022-12-15T19:20:38.901Z,22.55
2022-12-15T19:23:07.769Z,19.73
2022-12-15T19:25:36.371Z,19.62
2022-12-15T19:28:04.108Z,17.92
2022-12-15T19:30:42.074Z,19.02
2022-12-15T19:33:11.436Z,20.95
2022-12-15T19:35:40.459Z,18.62
2022-12-15T19:38:09.617Z,16.20
2022-12-15T19:40:38.649Z,19.67
2022-12-15T19:43:06.777Z,16.85
2022-12-15T19:45:34.885Z,18.05
2022-12-15T19:48:02.767Z,19.35
2022-12-15T19:50:37.189Z,18.12
2022-12-15T19:53:11.996Z,18.98
2022-12-15T19:55:39.875Z,16.37
2022-12-15T19:58:30.648Z,17.23
2022-12-15T20:01:05.317Z,18.52
2022-12-15T20:03:33.952Z,20.25
2022-12-15T20:06:03.413Z,18.85
2022-12-15T20:08:35.742Z,16.25
2022-12-15T20:11:03.573Z,17.33
2022-12-15T20:13:32.079Z,17.55
2022-12-15T20:16:00.057Z,15.50
2022-12-15T20:18:27.741Z,15.30
2022-12-15T20:20:56.678Z,16.85
2022-12-15T20:23:27.417Z,17.90
2022-12-15T20:25:57.114Z,15.07
2022-12-15T20:28:30.775Z,15.90
2022-12-15T20:30:58.944Z,15.52
2022-12-15T20:33:26.769Z,15.25
2022-12-15T20:35:55.443Z,16.67
2022-12-15T20:38:34.427Z,15.55
2022-12-15T20:41:03.773Z,14.38
2022-12-15T20:43:33.300Z,14.63
2022-12-15T20:46:08.745Z,14.20
2022-12-15T20:48:37.828Z,15.50
2022-12-15T20:51:09.728Z,14.35
2022-12-15T20:53:38.957Z,16.33
2022-12-15T20:56:07.331Z,13.18
2022-12-15T20:58:41.090Z,13.65
2022-12-15T21:01:32.897Z,12.88
2022-12-15T21:04:03.278Z,13.62
2022-12-15T21:06:31.748Z,11.70
2022-12-15T21:08:59.459Z,12.88
2022-12-15T21:11:29.109Z,12.20
2022-12-15T21:13:59.943Z,12.77
2022-12-15T21:16:29.640Z,12.57
2022-12-15T21:19:26.945Z,14.77
2022-12-15T21:21:52.283Z,13.80
2022-12-15T21:24:26.095Z,11.55
2022-12-15T21:26:54.108Z,11.18
2022-12-15T21:29:25.501Z,12.63
2022-12-15T21:31:53.312Z,13.20
2022-12-15T21:34:21.040Z,10.38
2022-12-15T21:36:52.402Z,11.40
2022-12-15T21:39:26.147Z,12.35
2022-12-15T21:41:55.056Z,12.23
2022-12-15T21:44:23.004Z,13.38
2022-12-15T21:46:51.606Z,11.25
2022-12-15T21:49:19.783Z,12.40
2022-12-15T21:51:52.081Z,12.45
2022-12-15T21:54:28.799Z,14.77
2022-12-15T21:56:58.538Z,13.20
2022-12-15T21:59:32.998Z,12.23
2022-12-15T22:02:01.943Z,10.32
2022-12-15T22:04:33.737Z,14.98
2022-12-15T22:07:01.652Z,13.68
2022-12-15T22:09:29.713Z,12.10
2022-12-15T22:11:57.901Z,12.65
2022-12-15T22:14:30.987Z,16.70
2022-12-15T22:17:00.361Z,12.63
2022-12-15T22:19:28.308Z,12.48
2022-12-15T22:21:56.019Z,12.70
2022-12-15T22:24:23.942Z,10.10
2022-12-15T22:26:51.615Z,12.27
2022-12-15T22:29:22.641Z,12.73
2022-12-15T22:31:51.779Z,11.38
2022-12-15T22:34:24.474Z,10.32
2022-12-15T22:36:52.326Z,11.82
2022-12-15T22:39:20.547Z,10.45
2022-12-15T22:41:51.358Z,9.88
2022-12-15T22:44:28.542Z,12.88
2022-12-15T22:46:59.380Z,10.77
2022-12-15T22:49:35.834Z,12.90
2022-12-15T22:52:03.987Z,10.85
2022-12-15T22:54:33.265Z,12.18
2022-12-15T22:57:07.506Z,12.13
2022-12-15T22:59:42.793Z,12.52
2022-12-15T23:02:11.879Z,12.93
2022-12-15T23:04:39.575Z,11.63
2022-12-15T23:07:11.225Z,12.37
2022-12-15T23:09:39.568Z,11.02
2022-12-15T23:12:07.430Z,10.40
2022-12-15T23:14:53.637Z,12.35
2022-12-15T23:17:22.531Z,11.82
2022-12-15T23:19:50.229Z,12.52
2022-12-15T23:22:17.929Z,9.85
2022-12-15T23:24:45.586Z,10.57
2022-12-15T23:27:13.832Z,11.15
2022-12-15T23:29:41.668Z,9.30
2022-12-15T23:32:09.334Z,11.05
2022-12-15T23:34:37.023Z,10.02
2022-12-15T23:37:04.688Z,9.65
2022-12-15T23:39:32.669Z,11.68
2022-12-15T23:42:00.363Z,9.18
2022-12-15T23:44:28.114Z,9.55
2022-12-15T23:46:58.461Z,9.77
2022-12-15T23:49:26.165Z,10.25
2022-12-15T23:51:53.822Z,10.15
2022-12-15T23:54:22.827Z,9.13
2022-12-15T23:56:50.461Z,9.10
2022-12-15T23:59:19.443Z,9.73
